LFPN 221030Z AUTO 04012KT 010V070 7000 NSC 01/M04 Q1018 NOSIG

ElémentsDécodage
LFPN Station météo située sur l'aérodrome de TOUSSUS-LE-NOBLE
221030Z émis le 22 du mois à 10h30 UTC
AUTO Bulletin édité par un automate
04012KT vent du 040°, 12 noeuds
010V070 vent de direction variable entre 010° et 070°
7000 visibilité horizontale de 7000 mètres
NSC pas de nuage significatif (pas de nuage <5000ft, pas de CB)
01/M04 température 01°C, point de rosée -04°C
 soit une humidité relative de 69%
Q1018 la pression au niveau de la mer (QNH) est de 1018 hPa
NOSIG Pas de changement significatif prévu au cours des deux heures suivant l'heure de l'observation